Time;durP1;ratioP1;P1;durP2;ratioP2;P2;SDS_P1;SDS_P2;PMS_P1;PMS_P2;Temp;Humidity;BMP_temperature;BMP_pressure;BME280_temperature;BME280_humidity;BME280_pressure;Samples;Min_cycle;Max_cycle;Signal;HPM_P1;HPM_P2
2024/01/22 00:00:31;;;;;;;43.20;21.80;;;;;;;-6.58;71.42;103378.07;107662;1251;97080;-65
2024/01/22 00:03:20;;;;;;;42.90;20.00;;;;;;;-6.57;71.19;103378.45;107542;1250;112085;-65
2024/01/22 00:05:48;;;;;;;45.20;21.20;;;;;;;-6.59;71.27;103380.15;107633;1251;107613;-65
2024/01/22 00:08:17;;;;;;;47.10;21.30;;;;;;;-6.59;71.54;103379.98;107606;1254;107356;-64
2024/01/22 00:10:45;;;;;;;43.40;18.70;;;;;;;-6.60;71.14;103372.81;107615;1251;96496;-65
2024/01/22 00:13:15;;;;;;;41.00;20.20;;;;;;;-6.59;71.43;103368.98;107636;1251;96474;-66
2024/01/22 00:15:43;;;;;;;42.00;20.40;;;;;;;-6.60;71.24;103368.62;107592;1256;110034;-66
2024/01/22 00:18:12;;;;;;;47.80;21.20;;;;;;;-6.67;70.94;103366.70;107578;1256;108016;-65
2024/01/22 00:20:40;;;;;;;39.60;19.00;;;;;;;-6.71;71.06;103367.83;107622;1251;108119;-65
2024/01/22 00:23:09;;;;;;;39.50;18.60;;;;;;;-6.74;71.11;103370.70;107608;1255;96497;-64
2024/01/22 00:25:37;;;;;;;41.50;18.80;;;;;;;-6.77;71.35;103364.19;107605;1251;96484;-65
2024/01/22 00:28:06;;;;;;;36.60;18.90;;;;;;;-6.81;71.12;103368.08;107597;1251;110902;-65
2024/01/22 00:30:34;;;;;;;37.10;19.50;;;;;;;-6.84;71.22;103375.35;107612;1254;107888;-64
2024/01/22 00:33:02;;;;;;;44.40;22.50;;;;;;;-6.85;71.34;103371.46;107646;1251;107268;-66
2024/01/22 00:35:31;;;;;;;43.70;22.40;;;;;;;-6.87;71.01;103371.59;107661;1251;96568;-65
2024/01/22 00:38:00;;;;;;;39.70;20.70;;;;;;;-6.90;71.40;103367.15;107615;1251;98311;-65
2024/01/22 00:40:29;;;;;;;50.00;22.20;;;;;;;-6.93;71.10;103370.93;107669;1251;110016;-64
2024/01/22 00:42:57;;;;;;;41.90;20.40;;;;;;;-6.97;71.16;103366.98;107562;1251;108354;-65
2024/01/22 00:45:26;;;;;;;44.50;22.00;;;;;;;-7.00;71.12;103362.55;107590;1251;108338;-66
2024/01/22 00:47:54;;;;;;;45.60;22.40;;;;;;;-7.01;71.06;103358.67;107652;1251;96512;-66
2024/01/22 00:50:23;;;;;;;39.70;20.10;;;;;;;-7.01;71.09;103358.67;107567;1251;97048;-65
2024/01/22 00:52:51;;;;;;;46.10;22.10;;;;;;;-7.03;71.08;103355.48;107614;1251;110114;-65
2024/01/22 00:55:19;;;;;;;40.10;21.00;;;;;;;-7.03;71.38;103349.89;107628;1251;108316;-65
2024/01/22 00:57:48;;;;;;;47.10;21.60;;;;;;;-7.03;71.03;103351.81;107610;1251;108251;-64
2024/01/22 01:00:17;;;;;;;38.70;20.00;;;;;;;-7.05;70.93;103348.96;107571;1251;96484;-65
2024/01/22 01:02:45;;;;;;;40.30;21.20;;;;;;;-7.11;70.92;103347.42;107680;1251;96465;-66
2024/01/22 01:05:14;;;;;;;43.20;21.20;;;;;;;-7.16;70.93;103345.71;107602;1251;110769;-65
2024/01/22 01:07:42;;;;;;;40.10;21.10;;;;;;;-7.16;70.95;103350.95;107620;1250;108670;-65
2024/01/22 01:10:10;;;;;;;48.30;22.20;;;;;;;-7.19;70.84;103344.77;107608;1251;108783;-66
2024/01/22 01:12:39;;;;;;;47.70;22.10;;;;;;;-7.22;70.79;103344.33;107602;1250;96551;-65
2024/01/22 01:15:09;;;;;;;47.50;23.40;;;;;;;-7.25;70.77;103336.96;107633;1251;96527;-64
2024/01/22 01:17:37;;;;;;;56.40;23.60;;;;;;;-7.29;70.75;103342.41;107628;1251;109920;-65
2024/01/22 01:20:06;;;;;;;42.60;20.70;;;;;;;-7.35;70.57;103346.44;107592;1256;107421;-65
2024/01/22 01:22:34;;;;;;;50.40;23.10;;;;;;;-7.41;70.33;103346.27;107572;1251;108026;-65
2024/01/22 01:25:04;;;;;;;42.90;22.90;;;;;;;-7.45;70.60;103340.05;107582;1251;96708;-65
2024/01/22 01:27:32;;;;;;;51.30;21.90;;;;;;;-7.48;70.42;103340.31;107622;1251;97014;-66
2024/01/22 01:30:00;;;;;;;47.40;23.40;;;;;;;-7.49;70.43;103340.30;107592;1251;110722;-66
2024/01/22 01:32:29;;;;;;;47.50;23.20;;;;;;;-7.51;70.38;103337.27;107588;1251;107579;-65
2024/01/22 01:34:57;;;;;;;50.20;22.60;;;;;;;-7.52;70.69;103340.91;107554;1256;106538;-67
2024/01/22 01:37:26;;;;;;;47.70;23.00;;;;;;;-7.53;70.57;103340.52;107521;1254;96507;-66
2024/01/22 01:39:54;;;;;;;48.40;23.00;;;;;;;-7.52;70.63;103337.41;107562;1251;96357;-65
2024/01/22 01:42:22;;;;;;;49.20;23.60;;;;;;;-7.54;70.45;103336.67;107584;1251;110069;-66
2024/01/22 01:44:52;;;;;;;49.40;24.50;;;;;;;-7.58;70.50;103345.61;107568;1251;108692;-65
2024/01/22 01:47:20;;;;;;;46.30;23.40;;;;;;;-7.65;70.06;103342.27;107601;1251;107625;-66
2024/01/22 01:49:50;;;;;;;52.00;24.70;;;;;;;-7.74;69.97;103338.19;107635;1251;96625;-66
2024/01/22 01:52:19;;;;;;;58.40;25.90;;;;;;;-7.76;70.43;103343.88;107659;1251;96517;-65
2024/01/22 01:54:50;;;;;;;55.10;24.60;;;;;;;-7.78;70.12;103338.08;107579;1255;111054;-64
2024/01/22 01:57:22;;;;;;;48.90;23.20;;;;;;;-7.80;70.19;103334.00;107594;1251;107660;-66
2024/01/22 01:59:51;;;;;;;50.40;22.80;;;;;;;-7.83;69.95;103324.49;107547;1251;107696;-64
2024/01/22 02:02:20;;;;;;;50.00;24.90;;;;;;;-7.87;69.97;103329.97;107515;1251;96493;-65
2024/01/22 02:04:49;;;;;;;56.60;25.30;;;;;;;-7.88;70.25;103335.38;107620;1251;96372;-65
2024/01/22 02:07:17;;;;;;;53.70;24.10;;;;;;;-7.88;70.30;103336.05;107619;1251;109691;-66
2024/01/22 02:09:53;;;;;;;49.40;22.60;;;;;;;-7.91;70.06;103333.70;107683;1255;107183;-65
2024/01/22 02:12:22;;;;;;;54.60;24.90;;;;;;;-7.91;70.04;103339.97;107583;1251;107658;-66
2024/01/22 02:14:50;;;;;;;48.80;22.00;;;;;;;-7.91;70.36;103332.30;107533;1251;96353;-66
2024/01/22 02:17:18;;;;;;;53.60;23.70;;;;;;;-7.93;69.97;103337.83;107531;1251;96821;-65
2024/01/22 02:19:46;;;;;;;50.50;23.20;;;;;;;-7.95;70.23;103339.14;107568;1251;110399;-65
2024/01/22 02:22:15;;;;;;;49.20;23.60;;;;;;;-7.95;70.22;103334.10;107550;1251;107183;-66
2024/01/22 02:24:44;;;;;;;49.20;23.20;;;;;;;-7.95;70.46;103332.18;107627;1251;108156;-65
2024/01/22 02:27:12;;;;;;;48.30;24.00;;;;;;;-7.94;70.61;103326.65;107616;1251;96508;-66
2024/01/22 02:29:40;;;;;;;51.10;23.50;;;;;;;-7.95;70.02;103327.81;107624;1251;96485;-66
2024/01/22 02:32:09;;;;;;;51.30;24.20;;;;;;;-8.03;69.84;103327.77;107590;1256;110054;-66
2024/01/22 02:34:37;;;;;;;55.00;24.90;;;;;;;-8.10;69.74;103322.17;107535;1254;107189;-66
2024/01/22 02:37:06;;;;;;;54.70;24.80;;;;;;;-8.22;69.64;103324.05;107567;1256;108339;-66
2024/01/22 02:39:36;;;;;;;56.70;24.30;;;;;;;-8.27;69.99;103330.70;107520;1257;96568;-66
2024/01/22 02:42:04;;;;;;;54.70;23.90;;;;;;;-8.29;69.89;103328.00;107543;1251;96366;-64
2024/01/22 02:44:35;;;;;;;48.80;24.20;;;;;;;-8.31;70.07;103326.75;107532;1251;109274;-65
2024/01/22 02:47:04;;;;;;;61.20;25.40;;;;;;;-8.30;70.33;103338.09;107555;1256;107647;-66
2024/01/22 02:49:34;;;;;;;56.90;27.20;;;;;;;-8.30;70.25;103345.39;107563;1256;107675;-64
2024/01/22 02:52:04;;;;;;;46.70;23.90;;;;;;;-8.32;70.20;103339.77;107520;1251;96481;-65
2024/01/22 02:54:32;;;;;;;53.80;24.10;;;;;;;-8.36;69.96;103329.02;107611;1251;96344;-66
2024/01/22 02:57:01;;;;;;;48.80;23.00;;;;;;;-8.42;69.95;103323.63;107607;1256;110826;-65
2024/01/22 02:59:30;;;;;;;51.10;24.90;;;;;;;-8.42;70.15;103317.16;107564;1251;107920;-64
2024/01/22 03:01:58;;;;;;;47.80;23.10;;;;;;;-8.45;70.03;103319.52;107555;1251;108275;-66
2024/01/22 03:04:27;;;;;;;46.90;22.90;;;;;;;-8.43;69.81;103326.19;107541;1256;96564;-65
2024/01/22 03:06:56;;;;;;;50.60;24.20;;;;;;;-8.40;70.24;103327.51;107558;1254;97010;-66
2024/01/22 03:09:25;;;;;;;50.90;23.70;;;;;;;-8.39;70.02;103326.33;107694;1254;109849;-64
2024/01/22 03:11:53;;;;;;;49.00;22.60;;;;;;;-8.38;69.96;103319.38;107624;1257;107408;-66
2024/01/22 03:14:22;;;;;;;47.50;22.70;;;;;;;-8.38;70.02;103319.58;107565;1251;109175;-64
2024/01/22 03:16:50;;;;;;;48.30;22.60;;;;;;;-8.43;69.96;103322.54;107581;1255;96471;-65
2024/01/22 03:19:19;;;;;;;43.80;21.40;;;;;;;-8.51;70.01;103317.29;107587;1252;96357;-67
2024/01/22 03:21:47;;;;;;;47.10;24.00;;;;;;;-8.54;70.12;103316.85;107559;1251;109857;-65
2024/01/22 03:24:16;;;;;;;44.50;22.90;;;;;;;-8.53;70.00;103322.27;107578;1255;109138;-65
2024/01/22 03:26:44;;;;;;;47.80;22.60;;;;;;;-8.57;69.96;103323.00;107597;1254;107288;-66
2024/01/22 03:29:13;;;;;;;45.90;22.70;;;;;;;-8.58;69.58;103316.02;107569;1256;96477;-66
2024/01/22 03:31:41;;;;;;;47.80;24.20;;;;;;;-8.56;70.01;103315.89;107553;1251;96369;-64
2024/01/22 03:34:10;;;;;;;48.20;22.20;;;;;;;-8.57;70.20;103312.92;107595;1251;110627;-65
2024/01/22 03:36:38;;;;;;;48.80;24.60;;;;;;;-8.63;69.52;103316.55;107578;1251;108005;-67
2024/01/22 03:39:06;;;;;;;43.80;21.00;;;;;;;-8.68;69.54;103313.95;107590;1256;107965;-64
2024/01/22 03:41:37;;;;;;;46.60;22.30;;;;;;;-8.66;69.76;103315.94;107552;1251;96469;-67
2024/01/22 03:44:06;;;;;;;47.00;21.60;;;;;;;-8.66;69.91;103318.54;107579;1256;97115;-67
2024/01/22 03:46:35;;;;;;;44.60;24.20;;;;;;;-8.69;69.53;103319.34;107599;1256;110450;-67
2024/01/22 03:49:03;;;;;;;53.00;24.80;;;;;;;-8.70;69.71;103319.83;107579;1251;107977;-67
2024/01/22 03:51:32;;;;;;;46.70;21.50;;;;;;;-8.67;69.67;103323.58;107566;1251;108113;-66
2024/01/22 03:54:00;;;;;;;45.10;21.30;;;;;;;-8.64;69.64;103318.43;107577;1254;96382;-64
2024/01/22 03:56:29;;;;;;;51.40;22.80;;;;;;;-8.64;69.51;103323.30;107612;1254;97015;-64
2024/01/22 03:58:57;;;;;;;48.30;22.10;;;;;;;-8.64;69.52;103323.14;107586;1250;110822;-65
2024/01/22 04:01:25;;;;;;;44.50;20.70;;;;;;;-8.67;69.52;103321.13;107573;1256;108319;-65
2024/01/22 04:03:54;;;;;;;60.50;23.90;;;;;;;-8.70;69.30;103321.54;107578;1254;107053;-65
2024/01/22 04:06:22;;;;;;;50.30;21.30;;;;;;;-8.76;69.26;103319.09;107614;1256;96506;-67
2024/01/22 04:08:51;;;;;;;44.10;21.50;;;;;;;-8.82;69.18;103313.50;107611;1251;96452;-65
2024/01/22 04:11:20;;;;;;;39.20;20.90;;;;;;;-8.84;69.15;103308.23;107582;1254;109903;-67
2024/01/22 04:13:48;;;;;;;48.40;22.50;;;;;;;-8.85;69.10;103304.17;107655;1251;108426;-67
2024/01/22 04:16:17;;;;;;;50.40;23.10;;;;;;;-8.88;69.11;103303.04;107595;1254;108206;-67
2024/01/22 04:18:45;;;;;;;43.50;21.70;;;;;;;-8.93;69.10;103307.40;107592;1251;96522;-68
2024/01/22 04:21:14;;;;;;;44.70;20.10;;;;;;;-8.95;69.07;103312.21;107607;1251;97035;-67
2024/01/22 04:23:42;;;;;;;48.10;23.10;;;;;;;-8.94;69.14;103315.38;107590;1255;110150;-68
2024/01/22 04:26:11;;;;;;;42.40;21.60;;;;;;;-8.95;69.00;103321.95;107597;1251;106567;-66
2024/01/22 04:28:40;;;;;;;51.70;22.30;;;;;;;-8.94;69.18;103328.08;107613;1250;108194;-65
2024/01/22 04:31:08;;;;;;;49.30;20.50;;;;;;;-8.95;68.90;103327.16;107545;1251;96471;-64
2024/01/22 04:33:37;;;;;;;39.00;19.90;;;;;;;-8.97;68.93;103339.10;107637;1251;97019;-65
2024/01/22 04:36:06;;;;;;;47.10;21.00;;;;;;;-8.99;68.88;103341.83;107580;1254;110423;-65
2024/01/22 04:38:34;;;;;;;43.00;21.70;;;;;;;-9.03;68.95;103340.46;107646;1254;107298;-67
2024/01/22 04:41:03;;;;;;;47.50;23.30;;;;;;;-9.05;68.75;103341.59;107559;1254;107784;-65
2024/01/22 04:43:31;;;;;;;40.20;21.10;;;;;;;-9.08;68.75;103339.77;107565;1251;96491;-66
2024/01/22 04:46:00;;;;;;;54.40;23.50;;;;;;;-9.06;68.79;103335.46;107581;1251;97090;-67
2024/01/22 04:48:28;;;;;;;49.20;23.60;;;;;;;-9.04;68.93;103328.41;107576;1251;109359;-68
2024/01/22 04:50:57;;;;;;;56.70;26.70;;;;;;;-9.03;69.09;103326.54;107611;1251;106379;-66
2024/01/22 04:53:25;;;;;;;54.50;26.80;;;;;;;-9.00;69.29;103328.73;107561;1256;108037;-67
2024/01/22 04:55:53;;;;;;;100.90;37.20;;;;;;;-8.95;69.36;103317.05;107556;1254;96568;-66
2024/01/22 04:58:22;;;;;;;55.70;22.00;;;;;;;-8.90;69.24;103318.12;107580;1251;96472;-65
2024/01/22 05:00:50;;;;;;;49.60;22.50;;;;;;;-8.89;69.11;103315.88;107589;1251;110091;-67
2024/01/22 05:03:18;;;;;;;39.60;19.70;;;;;;;-8.92;69.02;103311.44;107565;1254;108326;-64
2024/01/22 05:05:47;;;;;;;45.90;22.50;;;;;;;-8.96;68.63;103307.64;107564;1251;108526;-67
2024/01/22 05:08:16;;;;;;;41.30;21.30;;;;;;;-8.98;69.11;103307.08;107558;1254;96477;-66
2024/01/22 05:10:44;;;;;;;42.40;20.50;;;;;;;-8.97;68.86;103319.45;107576;1254;97060;-68
2024/01/22 05:13:13;;;;;;;46.60;20.30;;;;;;;-9.01;68.83;103326.79;107547;1251;110094;-69
2024/01/22 05:15:42;;;;;;;43.20;20.90;;;;;;;-9.07;68.85;103326.23;107603;1254;107940;-68
2024/01/22 05:18:10;;;;;;;40.30;19.00;;;;;;;-9.09;68.83;103338.16;107577;1255;107737;-67
2024/01/22 05:20:39;;;;;;;44.00;20.50;;;;;;;-9.11;68.68;103336.71;107521;1251;96466;-67
2024/01/22 05:23:08;;;;;;;42.90;20.70;;;;;;;-9.10;68.89;103334.82;107614;1251;97003;-67
2024/01/22 05:25:36;;;;;;;42.50;19.80;;;;;;;-9.08;69.02;103338.89;107580;1251;110575;-66
2024/01/22 05:28:05;;;;;;;41.80;19.90;;;;;;;-9.07;68.96;103335.95;107629;1251;108371;-68
2024/01/22 05:30:34;;;;;;;48.10;21.50;;;;;;;-9.07;68.98;103333.02;107532;1251;108406;-67
2024/01/22 05:33:03;;;;;;;40.30;19.50;;;;;;;-9.04;68.91;103331.05;107593;1251;96481;-67
2024/01/22 05:35:31;;;;;;;41.90;20.60;;;;;;;-9.01;68.99;103326.77;107589;1251;96373;-67
2024/01/22 05:37:59;;;;;;;38.70;20.40;;;;;;;-9.03;68.92;103329.48;107550;1254;109719;-67
2024/01/22 05:40:28;;;;;;;62.60;26.90;;;;;;;-9.06;68.60;103329.91;107594;1250;109431;-68
2024/01/22 05:42:56;;;;;;;76.70;30.60;;;;;;;-9.08;68.87;103331.75;107551;1254;108171;-67
2024/01/22 05:45:26;;;;;;;57.90;24.30;;;;;;;-9.11;68.81;103338.80;107539;1251;96524;-67
2024/01/22 05:47:54;;;;;;;45.50;20.80;;;;;;;-9.10;68.79;103339.17;107658;1251;96460;-67
2024/01/22 05:50:22;;;;;;;43.90;22.40;;;;;;;-9.10;68.81;103341.10;107569;1253;110417;-67
2024/01/22 05:52:51;;;;;;;40.00;22.10;;;;;;;-9.09;68.61;103335.55;107602;1251;108253;-67
2024/01/22 05:55:19;;;;;;;38.30;20.00;;;;;;;-9.10;69.02;103338.48;107561;1251;108012;-66
2024/01/22 05:57:48;;;;;;;47.60;21.20;;;;;;;-9.08;68.82;103342.19;107583;1256;96612;-68
2024/01/22 06:00:18;;;;;;;47.50;25.50;;;;;;;-9.06;68.93;103330.59;107648;1256;96570;-67
2024/01/22 06:02:47;;;;;;;49.90;25.70;;;;;;;-9.05;68.47;103321.42;107668;1250;109839;-66
2024/01/22 06:05:16;;;;;;;46.90;21.50;;;;;;;-9.03;68.89;103321.50;107609;1251;109339;-66
2024/01/22 06:07:44;;;;;;;47.40;24.30;;;;;;;-8.99;69.12;103330.67;107568;1251;107719;-68
2024/01/22 06:10:13;;;;;;;50.80;22.70;;;;;;;-8.96;68.84;103336.68;107518;1251;96477;-68
2024/01/22 06:12:41;;;;;;;47.40;20.60;;;;;;;-8.99;68.62;103336.41;107593;1251;97013;-69
2024/01/22 06:15:10;;;;;;;39.80;20.20;;;;;;;-9.00;68.47;103334.46;107504;1252;109754;-68
2024/01/22 06:17:38;;;;;;;38.80;18.80;;;;;;;-9.03;68.49;103332.63;107498;1251;108486;-66
2024/01/22 06:20:09;;;;;;;42.40;20.20;;;;;;;-9.06;68.29;103332.19;107470;1254;106676;-67
2024/01/22 06:22:37;;;;;;;48.50;20.50;;;;;;;-9.06;68.42;103325.75;107530;1251;96376;-67
2024/01/22 06:25:07;;;;;;;38.60;21.00;;;;;;;-8.99;68.92;103317.83;107507;1251;96364;-67
2024/01/22 06:27:35;;;;;;;41.20;21.50;;;;;;;-8.88;69.05;103315.92;107581;1251;108928;-67
2024/01/22 06:30:05;;;;;;;39.10;20.60;;;;;;;-8.82;69.16;103312.98;107464;1251;108588;-67
2024/01/22 06:32:33;;;;;;;49.00;22.70;;;;;;;-8.73;69.28;103314.65;107669;1251;107420;-70
2024/01/22 06:35:02;;;;;;;50.20;25.50;;;;;;;-8.67;69.02;103315.02;107495;1251;96915;-68
2024/01/22 06:37:30;;;;;;;53.10;22.90;;;;;;;-8.63;69.08;103314.80;107511;1251;96364;-68
2024/01/22 06:40:00;;;;;;;59.10;26.60;;;;;;;-8.56;69.06;103318.52;107524;1251;109178;-67
2024/01/22 06:42:29;;;;;;;53.40;26.00;;;;;;;-8.51;68.92;103316.41;107476;1251;109029;-67
2024/01/22 06:45:07;;;;;;;68.20;30.30;;;;;;;-8.42;68.99;103311.26;107495;1254;108538;-67
2024/01/22 06:47:37;;;;;;;75.40;34.30;;;;;;;-8.36;68.89;103312.16;107516;1251;96477;-68
2024/01/22 06:50:07;;;;;;;67.50;32.00;;;;;;;-8.30;68.89;103310.41;107589;1251;96480;-67
2024/01/22 06:52:36;;;;;;;72.80;33.00;;;;;;;-8.24;69.09;103304.84;107536;1250;108571;-66
2024/01/22 06:55:06;;;;;;;75.00;34.00;;;;;;;-8.16;68.71;103309.27;107518;1251;107790;-67
2024/01/22 06:57:34;;;;;;;60.80;30.30;;;;;;;-8.07;68.71;103311.10;107519;1251;107036;-67
2024/01/22 07:00:07;;;;;;;230.70;43.10;;;;;;;-7.99;69.05;103306.30;107499;1254;96574;-67
2024/01/22 07:02:38;;;;;;;77.80;34.10;;;;;;;-7.89;68.93;103309.88;107678;1256;96541;-66
2024/01/22 07:05:08;;;;;;;59.20;28.40;;;;;;;-7.80;69.22;103319.38;107547;1251;109954;-67
2024/01/22 07:07:37;;;;;;;55.90;27.60;;;;;;;-7.74;68.63;103322.34;107515;1251;106005;-67
2024/01/22 07:10:10;;;;;;;52.80;26.10;;;;;;;-7.68;68.96;103322.31;107488;1254;107578;-68
2024/01/22 07:12:42;;;;;;;45.60;25.40;;;;;;;-7.65;68.67;103321.35;107651;1251;96503;-68
2024/01/22 07:15:12;;;;;;;50.10;24.80;;;;;;;-7.63;68.82;103321.05;107478;1251;96455;-68
2024/01/22 07:17:42;;;;;;;50.20;24.20;;;;;;;-7.57;69.16;103302.77;107539;1251;111102;-68
2024/01/22 07:20:14;;;;;;;49.90;23.30;;;;;;;-7.42;69.12;103312.58;107492;1251;107070;-68
2024/01/22 07:22:45;;;;;;;50.90;25.30;;;;;;;-7.29;69.52;103313.11;107466;1254;108159;-66
2024/01/22 07:25:16;;;;;;;58.70;26.60;;;;;;;-7.14;69.65;103318.73;107485;1251;96468;-67
2024/01/22 07:27:45;;;;;;;51.80;25.80;;;;;;;-7.00;69.93;103314.92;107526;1251;96347;-67
2024/01/22 07:30:14;;;;;;;62.30;28.30;;;;;;;-6.86;69.74;103314.73;107617;1251;110036;-67
2024/01/22 07:32:44;;;;;;;69.00;31.80;;;;;;;-6.71;70.06;103319.64;107523;1251;108360;-67
2024/01/22 07:35:13;;;;;;;63.20;30.90;;;;;;;-6.55;70.03;103320.73;107514;1254;108003;-68
2024/01/22 07:37:47;;;;;;;61.00;29.30;;;;;;;-6.42;70.18;103318.60;107508;1251;96750;-67
2024/01/22 07:40:18;;;;;;;57.00;28.90;;;;;;;-6.24;70.32;103315.86;107523;1254;96468;-66
2024/01/22 07:42:47;;;;;;;53.80;28.10;;;;;;;-6.08;70.72;103319.34;107532;1251;110109;-67
2024/01/22 07:45:16;;;;;;;49.80;25.70;;;;;;;-5.94;70.58;103322.08;107632;1250;108137;-67
2024/01/22 07:47:44;;;;;;;75.50;30.80;;;;;;;-5.80;70.37;103324.79;107557;1251;108059;-69
2024/01/22 07:50:14;;;;;;;48.70;25.30;;;;;;;-5.67;70.48;103329.95;107620;1251;96487;-68
2024/01/22 07:52:43;;;;;;;51.20;24.30;;;;;;;-5.52;70.96;103326.75;107574;1251;97036;-68
2024/01/22 07:55:17;;;;;;;37.60;22.20;;;;;;;-5.39;70.58;103315.10;107568;1251;108262;-68
2024/01/22 07:57:47;;;;;;;45.20;22.70;;;;;;;-5.28;70.81;103317.25;107575;1251;107384;-68
2024/01/22 08:00:16;;;;;;;52.20;23.70;;;;;;;-5.10;70.99;103312.85;107585;1254;108254;-67
2024/01/22 08:02:45;;;;;;;47.00;22.70;;;;;;;-4.89;71.26;103313.02;107580;1251;96476;-66
2024/01/22 08:05:13;;;;;;;46.20;22.80;;;;;;;-4.69;71.27;103308.63;107575;1254;96599;-66
2024/01/22 08:07:43;;;;;;;49.20;24.50;;;;;;;-4.53;71.34;103302.75;107655;1251;110561;-65
2024/01/22 08:10:13;;;;;;;44.60;24.20;;;;;;;-4.40;71.47;103300.49;107647;1250;108467;-65
2024/01/22 08:12:42;;;;;;;40.70;20.30;;;;;;;-4.24;71.46;103293.70;107606;1251;107656;-65
2024/01/22 08:15:14;;;;;;;49.30;24.90;;;;;;;-4.12;71.63;103295.27;107521;1251;96482;-66
2024/01/22 08:17:48;;;;;;;45.70;25.80;;;;;;;-3.99;71.68;103282.83;107643;1251;96590;-65
2024/01/22 08:20:17;;;;;;;48.80;26.20;;;;;;;-3.88;71.53;103275.60;107642;1251;110996;-66
2024/01/22 08:22:47;;;;;;;50.00;28.60;;;;;;;-3.74;71.82;103271.55;107589;1251;107551;-66
2024/01/22 08:25:19;;;;;;;56.80;28.00;;;;;;;-3.60;71.56;103278.02;107584;1251;107218;-67
2024/01/22 08:27:48;;;;;;;58.00;29.50;;;;;;;-3.42;71.75;103271.90;107583;1250;96562;-66
2024/01/22 08:30:18;;;;;;;66.70;30.20;;;;;;;-3.23;71.74;103265.58;107577;1251;96501;-67
2024/01/22 08:32:47;;;;;;;59.50;30.60;;;;;;;-3.06;71.70;103263.98;107560;1251;109456;-67
2024/01/22 08:35:17;;;;;;;63.10;32.70;;;;;;;-2.88;71.54;103257.98;107597;1250;107827;-66
2024/01/22 08:37:52;;;;;;;70.60;36.60;;;;;;;-2.72;71.30;103258.80;107552;1251;107709;-66
2024/01/22 08:40:22;;;;;;;70.40;35.70;;;;;;;-2.52;71.27;103253.67;107603;1251;96744;-67
2024/01/22 08:42:55;;;;;;;74.60;35.10;;;;;;;-2.34;70.84;103248.50;107569;1254;96375;-67
2024/01/22 08:45:23;;;;;;;70.70;35.40;;;;;;;-2.15;70.68;103244.55;107458;1251;393892;-66
2024/01/22 08:47:52;;;;;;;75.20;36.50;;;;;;;-1.98;70.27;103241.45;107568;1251;107553;-67
2024/01/22 08:50:21;;;;;;;65.00;35.90;;;;;;;-1.72;70.08;103233.25;107546;1251;108100;-66
2024/01/22 08:52:53;;;;;;;71.20;33.90;;;;;;;-1.30;70.32;103232.10;107548;1251;96573;-68
2024/01/22 08:55:25;;;;;;;62.80;31.30;;;;;;;-0.60;68.76;103233.11;107628;1251;97025;-68
2024/01/22 08:57:54;;;;;;;62.20;31.90;;;;;;;0.27;67.38;103233.47;107551;1251;110340;-67
2024/01/22 09:00:24;;;;;;;52.70;28.70;;;;;;;1.12;66.31;103232.67;107615;1250;107880;-67
2024/01/22 09:02:53;;;;;;;54.00;28.10;;;;;;;1.78;65.15;103223.85;107662;1256;108542;-67
2024/01/22 09:05:22;;;;;;;54.10;26.80;;;;;;;2.44;63.90;103215.70;107584;1251;96612;-66
2024/01/22 09:07:52;;;;;;;47.10;24.20;;;;;;;2.89;61.48;103216.76;107566;1251;96515;-67
2024/01/22 09:10:23;;;;;;;44.60;23.70;;;;;;;3.40;61.13;103222.41;107530;1254;110103;-66
2024/01/22 09:12:53;;;;;;;37.70;22.30;;;;;;;3.95;59.75;103220.09;107641;1254;108662;-67
2024/01/22 09:15:21;;;;;;;43.50;24.60;;;;;;;4.34;58.46;103216.02;107722;1251;106603;-67
2024/01/22 09:17:51;;;;;;;43.90;23.40;;;;;;;4.80;58.75;103212.80;107582;1251;97209;-66
2024/01/22 09:20:21;;;;;;;34.50;21.80;;;;;;;5.04;56.05;103207.58;107549;1251;96997;-67
2024/01/22 09:22:49;;;;;;;40.10;23.10;;;;;;;5.43;57.27;103199.58;107574;1254;110113;-66
2024/01/22 09:25:19;;;;;;;44.40;25.10;;;;;;;5.85;55.63;103188.96;107583;1251;107797;-66
2024/01/22 09:27:49;;;;;;;43.90;24.30;;;;;;;5.99;53.75;103187.66;107598;1250;107932;-66
2024/01/22 09:30:17;;;;;;;45.20;24.40;;;;;;;6.22;52.96;103184.32;107542;1251;96575;-66
2024/01/22 09:32:47;;;;;;;37.70;22.40;;;;;;;6.61;53.93;103173.63;107513;1251;97015;-66
2024/01/22 09:35:15;;;;;;;35.20;23.20;;;;;;;7.33;53.78;103176.99;107480;1250;109660;-64
2024/01/22 09:37:44;;;;;;;41.90;23.20;;;;;;;7.74;50.28;103176.95;107522;1251;108202;-64
2024/01/22 09:40:13;;;;;;;33.80;20.20;;;;;;;7.86;48.04;103170.04;107423;1254;108578;-66
2024/01/22 09:42:53;;;;;;;27.90;18.90;;;;;;;7.92;47.20;103167.30;107556;1254;96572;-68
2024/01/22 09:45:21;;;;;;;28.40;19.70;;;;;;;7.76;46.75;103163.98;107612;1251;96471;-68
2024/01/22 09:47:50;;;;;;;33.30;19.50;;;;;;;7.99;47.12;103150.95;107516;1254;109997;-67
2024/01/22 09:50:18;;;;;;;26.10;16.60;;;;;;;8.20;47.44;103148.85;107509;1251;107932;-67
2024/01/22 09:52:51;;;;;;;26.90;17.30;;;;;;;8.55;46.80;103141.56;107472;1250;108659;-67
2024/01/22 09:55:22;;;;;;;26.20;18.00;;;;;;;8.88;45.60;103129.28;107433;1254;96529;-65
2024/01/22 09:57:53;;;;;;;27.70;19.20;;;;;;;9.11;44.75;103114.48;107572;1251;96456;-67
2024/01/22 10:00:26;;;;;;;27.40;18.50;;;;;;;9.15;43.30;103115.91;107628;1251;109262;-66
2024/01/22 10:02:56;;;;;;;36.90;21.60;;;;;;;9.51;44.78;103119.46;107500;1250;108200;-66
2024/01/22 10:05:25;;;;;;;29.70;17.10;;;;;;;10.07;44.99;103099.94;107583;1251;106641;-66
2024/01/22 10:07:53;;;;;;;25.30;17.20;;;;;;;10.63;43.95;103096.79;107507;1251;96474;-67
2024/01/22 10:10:22;;;;;;;17.00;12.80;;;;;;;11.06;41.60;103088.09;107453;1254;96477;-65
2024/01/22 10:13:04;;;;;;;22.40;14.80;;;;;;;11.34;39.58;103073.33;107504;1251;110481;-66
2024/01/22 10:15:35;;;;;;;17.00;12.50;;;;;;;11.43;40.21;103059.14;107562;1251;108725;-66
2024/01/22 10:18:11;;;;;;;12.80;8.80;;;;;;;11.70;38.91;103049.77;107499;1250;108643;-66
2024/01/22 10:20:41;;;;;;;15.00;8.60;;;;;;;11.97;37.71;103045.35;107523;1251;96468;-65
2024/01/22 10:23:11;;;;;;;9.90;7.40;;;;;;;12.23;36.70;103045.30;107515;1254;96644;-65
2024/01/22 10:25:40;;;;;;;11.10;7.20;;;;;;;12.44;34.82;103047.84;107560;1251;110148;-67
2024/01/22 10:28:16;;;;;;;9.00;6.60;;;;;;;12.51;33.35;103039.29;107530;1251;108493;-67
2024/01/22 10:31:00;;;;;;;10.40;7.40;;;;;;;12.44;33.93;103036.66;107499;1251;108132;-68
2024/01/22 10:33:29;;;;;;;15.00;7.40;;;;;;;12.59;34.65;103039.35;107580;1254;96371;-66
2024/01/22 10:36:13;;;;;;;14.30;7.90;;;;;;;12.78;34.34;103045.23;107508;1251;96375;-66
2024/01/22 10:38:42;;;;;;;10.20;7.40;;;;;;;13.03;34.08;103045.28;107658;1251;110715;-66
2024/01/22 10:41:19;;;;;;;14.30;9.20;;;;;;;13.28;33.04;103044.83;107555;1254;108359;-69
2024/01/22 10:43:52;;;;;;;12.90;8.20;;;;;;;13.44;33.96;103036.58;107485;1251;108735;-67
2024/01/22 10:46:21;;;;;;;12.30;7.50;;;;;;;13.74;33.62;103029.45;107503;1250;96488;-66
2024/01/22 10:48:51;;;;;;;9.20;6.70;;;;;;;14.02;31.11;103022.02;107515;1251;96383;-66
2024/01/22 10:51:23;;;;;;;10.70;7.40;;;;;;;13.94;30.57;103017.27;107491;1250;109466;-65
2024/01/22 10:53:52;;;;;;;14.20;6.90;;;;;;;13.90;31.16;103008.52;107548;1251;107443;-65
2024/01/22 10:56:28;;;;;;;10.10;7.50;;;;;;;13.95;30.66;102996.70;107510;1251;109532;-65
2024/01/22 10:59:07;;;;;;;14.30;9.10;;;;;;;14.05;31.07;102988.41;107511;1251;96506;-67
2024/01/22 11:01:37;;;;;;;11.20;8.20;;;;;;;14.18;30.33;102990.61;107541;1251;96373;-67
2024/01/22 11:04:08;;;;;;;11.20;8.00;;;;;;;14.24;29.45;102988.90;107584;1253;110890;-66
2024/01/22 11:06:42;;;;;;;11.60;8.00;;;;;;;14.19;30.79;102979.70;107623;1251;108285;-65
2024/01/22 11:09:12;;;;;;;13.40;8.00;;;;;;;14.42;28.83;102975.59;107569;1251;108767;-67